sensor_id;sensor_type;location;lat;lon;timestamp;P1;durP1;ratioP1;P2;durP2;ratioP2
21360;SDS011;10839;43.206;23.550;2023-06-04T00:00:46;4.22;;;2.95;;
21360;SDS011;10839;43.206;23.550;2023-06-04T00:03:12;4.53;;;3.10;;
21360;SDS011;10839;43.206;23.550;2023-06-04T00:05:38;4.35;;;3.33;;
21360;SDS011;10839;43.206;23.550;2023-06-04T00:08:03;4.25;;;3.50;;
21360;SDS011;10839;43.206;23.550;2023-06-04T00:10:29;4.03;;;3.40;;
21360;SDS011;10839;43.206;23.550;2023-06-04T00:12:56;4.30;;;3.40;;
21360;SDS011;10839;43.206;23.550;2023-06-04T00:15:22;4.07;;;3.30;;
21360;SDS011;10839;43.206;23.550;2023-06-04T00:17:48;3.65;;;3.33;;
21360;SDS011;10839;43.206;23.550;2023-06-04T00:20:14;3.50;;;3.20;;
21360;SDS011;10839;43.206;23.550;2023-06-04T00:22:40;3.92;;;3.03;;
21360;SDS011;10839;43.206;23.550;2023-06-04T00:25:07;3.40;;;2.80;;
21360;SDS011;10839;43.206;23.550;2023-06-04T00:27:36;3.60;;;2.80;;
21360;SDS011;10839;43.206;23.550;2023-06-04T00:30:03;4.13;;;3.08;;
21360;SDS011;10839;43.206;23.550;2023-06-04T00:32:29;4.25;;;2.70;;
21360;SDS011;10839;43.206;23.550;2023-06-04T00:34:55;2.80;;;2.60;;
21360;SDS011;10839;43.206;23.550;2023-06-04T00:37:24;3.22;;;2.92;;
21360;SDS011;10839;43.206;23.550;2023-06-04T00:39:50;3.50;;;3.10;;
21360;SDS011;10839;43.206;23.550;2023-06-04T00:42:17;5.63;;;2.88;;
21360;SDS011;10839;43.206;23.550;2023-06-04T00:44:43;4.35;;;3.15;;
21360;SDS011;10839;43.206;23.550;2023-06-04T00:47:14;4.07;;;3.20;;
21360;SDS011;10839;43.206;23.550;2023-06-04T00:49:41;3.42;;;2.90;;
21360;SDS011;10839;43.206;23.550;2023-06-04T00:52:08;3.22;;;2.88;;
21360;SDS011;10839;43.206;23.550;2023-06-04T00:54:35;5.50;;;3.25;;
21360;SDS011;10839;43.206;23.550;2023-06-04T00:57:04;3.28;;;2.92;;
21360;SDS011;10839;43.206;23.550;2023-06-04T00:59:31;5.93;;;3.05;;
21360;SDS011;10839;43.206;23.550;2023-06-04T01:02:09;5.10;;;2.80;;
21360;SDS011;10839;43.206;23.550;2023-06-04T01:04:44;2.95;;;2.63;;
21360;SDS011;10839;43.206;23.550;2023-06-04T01:07:17;2.80;;;2.55;;
21360;SDS011;10839;43.206;23.550;2023-06-04T01:09:44;6.53;;;2.80;;
21360;SDS011;10839;43.206;23.550;2023-06-04T01:12:11;4.40;;;2.78;;
21360;SDS011;10839;43.206;23.550;2023-06-04T01:14:37;5.45;;;2.80;;
21360;SDS011;10839;43.206;23.550;2023-06-04T01:25:45;3.40;;;2.85;;
21360;SDS011;10839;43.206;23.550;2023-06-04T01:28:07;4.15;;;3.03;;
21360;SDS011;10839;43.206;23.550;2023-06-04T01:30:38;3.25;;;2.83;;
21360;SDS011;10839;43.206;23.550;2023-06-04T01:33:09;3.83;;;3.03;;
21360;SDS011;10839;43.206;23.550;2023-06-04T01:35:36;4.72;;;3.30;;
21360;SDS011;10839;43.206;23.550;2023-06-04T01:38:02;6.95;;;3.72;;
21360;SDS011;10839;43.206;23.550;2023-06-04T01:40:29;4.10;;;3.35;;
21360;SDS011;10839;43.206;23.550;2023-06-04T01:42:55;6.15;;;4.10;;
21360;SDS011;10839;43.206;23.550;2023-06-04T01:45:21;4.55;;;3.80;;
21360;SDS011;10839;43.206;23.550;2023-06-04T01:47:48;5.10;;;4.07;;
21360;SDS011;10839;43.206;23.550;2023-06-04T01:50:14;5.15;;;4.07;;
21360;SDS011;10839;43.206;23.550;2023-06-04T01:52:40;8.05;;;4.38;;
21360;SDS011;10839;43.206;23.550;2023-06-04T01:55:07;7.82;;;4.70;;
21360;SDS011;10839;43.206;23.550;2023-06-04T01:57:37;5.68;;;4.57;;
21360;SDS011;10839;43.206;23.550;2023-06-04T02:00:07;6.78;;;4.57;;
21360;SDS011;10839;43.206;23.550;2023-06-04T02:02:44;10.70;;;6.95;;
21360;SDS011;10839;43.206;23.550;2023-06-04T02:05:14;37.88;;;26.38;;
21360;SDS011;10839;43.206;23.550;2023-06-04T02:07:41;24.48;;;16.30;;
21360;SDS011;10839;43.206;23.550;2023-06-04T02:10:10;10.60;;;7.85;;
21360;SDS011;10839;43.206;23.550;2023-06-04T02:12:39;21.40;;;14.00;;
21360;SDS011;10839;43.206;23.550;2023-06-04T02:15:07;21.80;;;13.52;;
21360;SDS011;10839;43.206;23.550;2023-06-04T02:17:36;17.95;;;11.18;;
21360;SDS011;10839;43.206;23.550;2023-06-04T02:20:08;15.35;;;10.10;;
21360;SDS011;10839;43.206;23.550;2023-06-04T02:22:35;10.82;;;8.20;;
21360;SDS011;10839;43.206;23.550;2023-06-04T02:25:01;10.32;;;5.95;;
21360;SDS011;10839;43.206;23.550;2023-06-04T02:27:27;10.77;;;6.38;;
21360;SDS011;10839;43.206;23.550;2023-06-04T02:29:53;9.35;;;6.43;;
21360;SDS011;10839;43.206;23.550;2023-06-04T02:32:19;9.52;;;6.68;;
21360;SDS011;10839;43.206;23.550;2023-06-04T02:34:45;12.60;;;6.53;;
21360;SDS011;10839;43.206;23.550;2023-06-04T02:37:11;11.57;;;6.60;;
21360;SDS011;10839;43.206;23.550;2023-06-04T02:39:37;9.35;;;5.88;;
21360;SDS011;10839;43.206;23.550;2023-06-04T02:42:03;13.38;;;6.30;;
21360;SDS011;10839;43.206;23.550;2023-06-04T02:44:29;26.67;;;15.35;;
21360;SDS011;10839;43.206;23.550;2023-06-04T02:46:56;38.83;;;26.73;;
21360;SDS011;10839;43.206;23.550;2023-06-04T02:49:22;38.75;;;24.85;;
21360;SDS011;10839;43.206;23.550;2023-06-04T02:51:48;24.05;;;15.90;;
21360;SDS011;10839;43.206;23.550;2023-06-04T02:54:15;20.65;;;13.18;;
21360;SDS011;10839;43.206;23.550;2023-06-04T02:56:42;16.08;;;7.88;;
21360;SDS011;10839;43.206;23.550;2023-06-04T02:59:11;11.35;;;6.72;;
21360;SDS011;10839;43.206;23.550;2023-06-04T03:01:37;11.98;;;6.88;;
21360;SDS011;10839;43.206;23.550;2023-06-04T03:04:03;11.25;;;6.40;;
21360;SDS011;10839;43.206;23.550;2023-06-04T03:06:30;12.00;;;5.68;;
21360;SDS011;10839;43.206;23.550;2023-06-04T03:08:58;9.82;;;5.15;;
21360;SDS011;10839;43.206;23.550;2023-06-04T03:11:26;15.30;;;5.95;;
21360;SDS011;10839;43.206;23.550;2023-06-04T03:13:53;6.57;;;4.95;;
21360;SDS011;10839;43.206;23.550;2023-06-04T03:16:20;8.30;;;4.47;;
21360;SDS011;10839;43.206;23.550;2023-06-04T03:18:46;8.57;;;4.55;;
21360;SDS011;10839;43.206;23.550;2023-06-04T03:21:13;6.30;;;4.43;;
21360;SDS011;10839;43.206;23.550;2023-06-04T03:23:39;9.25;;;4.90;;
21360;SDS011;10839;43.206;23.550;2023-06-04T03:26:05;5.60;;;3.97;;
21360;SDS011;10839;43.206;23.550;2023-06-04T03:28:32;37.42;;;20.58;;
21360;SDS011;10839;43.206;23.550;2023-06-04T03:31:00;35.70;;;23.55;;
21360;SDS011;10839;43.206;23.550;2023-06-04T03:33:28;34.10;;;21.83;;
21360;SDS011;10839;43.206;23.550;2023-06-04T03:35:54;11.18;;;8.18;;
21360;SDS011;10839;43.206;23.550;2023-06-04T03:38:23;7.57;;;4.78;;
21360;SDS011;10839;43.206;23.550;2023-06-04T03:40:49;7.28;;;5.05;;
21360;SDS011;10839;43.206;23.550;2023-06-04T03:43:17;10.02;;;4.97;;
21360;SDS011;10839;43.206;23.550;2023-06-04T03:45:43;7.63;;;4.68;;
21360;SDS011;10839;43.206;23.550;2023-06-04T03:48:10;10.18;;;4.70;;
21360;SDS011;10839;43.206;23.550;2023-06-04T03:50:36;6.10;;;3.90;;
21360;SDS011;10839;43.206;23.550;2023-06-04T03:53:03;7.78;;;4.53;;
21360;SDS011;10839;43.206;23.550;2023-06-04T03:55:32;8.75;;;4.60;;
21360;SDS011;10839;43.206;23.550;2023-06-04T03:58:00;11.73;;;5.00;;
21360;SDS011;10839;43.206;23.550;2023-06-04T04:00:26;9.32;;;6.05;;
21360;SDS011;10839;43.206;23.550;2023-06-04T04:02:54;19.85;;;12.07;;
21360;SDS011;10839;43.206;23.550;2023-06-04T04:05:27;20.90;;;11.67;;
21360;SDS011;10839;43.206;23.550;2023-06-04T04:07:53;23.00;;;12.43;;
21360;SDS011;10839;43.206;23.550;2023-06-04T04:10:24;23.73;;;13.13;;
21360;SDS011;10839;43.206;23.550;2023-06-04T04:12:50;10.38;;;7.18;;
21360;SDS011;10839;43.206;23.550;2023-06-04T04:15:20;8.90;;;5.40;;
21360;SDS011;10839;43.206;23.550;2023-06-04T04:17:47;9.63;;;4.68;;
21360;SDS011;10839;43.206;23.550;2023-06-04T04:20:13;7.78;;;5.05;;
21360;SDS011;10839;43.206;23.550;2023-06-04T04:22:48;9.18;;;4.55;;
21360;SDS011;10839;43.206;23.550;2023-06-04T04:25:16;8.80;;;4.30;;
21360;SDS011;10839;43.206;23.550;2023-06-04T04:27:42;7.10;;;4.28;;
21360;SDS011;10839;43.206;23.550;2023-06-04T04:30:11;8.45;;;4.03;;
21360;SDS011;10839;43.206;23.550;2023-06-04T04:32:40;9.50;;;4.53;;
21360;SDS011;10839;43.206;23.550;2023-06-04T04:35:17;7.80;;;3.97;;
21360;SDS011;10839;43.206;23.550;2023-06-04T04:37:45;9.93;;;4.45;;
21360;SDS011;10839;43.206;23.550;2023-06-04T04:40:13;7.53;;;4.05;;
21360;SDS011;10839;43.206;23.550;2023-06-04T04:42:42;8.98;;;5.13;;
21360;SDS011;10839;43.206;23.550;2023-06-04T04:45:10;43.20;;;25.77;;
21360;SDS011;10839;43.206;23.550;2023-06-04T04:47:37;38.30;;;24.10;;
21360;SDS011;10839;43.206;23.550;2023-06-04T04:50:04;18.13;;;9.48;;
21360;SDS011;10839;43.206;23.550;2023-06-04T04:52:32;7.97;;;5.57;;
21360;SDS011;10839;43.206;23.550;2023-06-04T04:54:58;13.30;;;5.93;;
21360;SDS011;10839;43.206;23.550;2023-06-04T04:57:27;9.73;;;5.40;;
21360;SDS011;10839;43.206;23.550;2023-06-04T04:59:55;11.40;;;5.00;;
21360;SDS011;10839;43.206;23.550;2023-06-04T05:02:21;7.40;;;4.63;;
21360;SDS011;10839;43.206;23.550;2023-06-04T05:04:48;6.50;;;4.07;;
21360;SDS011;10839;43.206;23.550;2023-06-04T05:07:15;6.45;;;3.97;;
21360;SDS011;10839;43.206;23.550;2023-06-04T05:09:42;10.48;;;4.45;;
21360;SDS011;10839;43.206;23.550;2023-06-04T05:12:09;6.63;;;4.47;;
21360;SDS011;10839;43.206;23.550;2023-06-04T05:14:37;6.97;;;3.95;;
21360;SDS011;10839;43.206;23.550;2023-06-04T05:17:03;5.20;;;3.53;;
21360;SDS011;10839;43.206;23.550;2023-06-04T05:19:29;11.25;;;4.22;;
21360;SDS011;10839;43.206;23.550;2023-06-04T05:21:59;7.28;;;4.65;;
21360;SDS011;10839;43.206;23.550;2023-06-04T05:24:27;9.98;;;6.03;;
21360;SDS011;10839;43.206;23.550;2023-06-04T05:26:56;38.28;;;24.30;;
21360;SDS011;10839;43.206;23.550;2023-06-04T05:29:24;20.27;;;11.68;;
21360;SDS011;10839;43.206;23.550;2023-06-04T05:31:51;17.40;;;9.38;;
21360;SDS011;10839;43.206;23.550;2023-06-04T05:34:20;9.02;;;5.50;;
21360;SDS011;10839;43.206;23.550;2023-06-04T05:36:48;10.80;;;5.28;;
21360;SDS011;10839;43.206;23.550;2023-06-04T05:39:16;11.88;;;4.80;;
21360;SDS011;10839;43.206;23.550;2023-06-04T05:41:54;7.45;;;4.80;;
21360;SDS011;10839;43.206;23.550;2023-06-04T05:44:21;8.18;;;4.82;;
21360;SDS011;10839;43.206;23.550;2023-06-04T05:46:47;9.80;;;4.85;;
21360;SDS011;10839;43.206;23.550;2023-06-04T05:49:14;9.90;;;4.90;;
21360;SDS011;10839;43.206;23.550;2023-06-04T05:51:41;26.80;;;14.27;;
21360;SDS011;10839;43.206;23.550;2023-06-04T05:54:07;20.50;;;10.10;;
21360;SDS011;10839;43.206;23.550;2023-06-04T05:56:36;15.07;;;6.78;;
21360;SDS011;10839;43.206;23.550;2023-06-04T05:59:03;8.95;;;4.40;;
21360;SDS011;10839;43.206;23.550;2023-06-04T06:01:28;9.38;;;5.60;;
21360;SDS011;10839;43.206;23.550;2023-06-04T06:03:55;12.50;;;5.18;;
21360;SDS011;10839;43.206;23.550;2023-06-04T06:06:23;22.30;;;12.35;;
21360;SDS011;10839;43.206;23.550;2023-06-04T06:08:49;15.40;;;9.25;;
21360;SDS011;10839;43.206;23.550;2023-06-04T06:11:16;18.23;;;10.05;;
21360;SDS011;10839;43.206;23.550;2023-06-04T06:13:42;11.88;;;6.40;;
21360;SDS011;10839;43.206;23.550;2023-06-04T06:16:09;9.75;;;6.05;;
21360;SDS011;10839;43.206;23.550;2023-06-04T06:18:35;11.23;;;5.07;;
21360;SDS011;10839;43.206;23.550;2023-06-04T06:21:01;8.30;;;4.65;;
21360;SDS011;10839;43.206;23.550;2023-06-04T06:23:29;7.53;;;4.15;;
21360;SDS011;10839;43.206;23.550;2023-06-04T06:25:55;10.52;;;4.30;;
21360;SDS011;10839;43.206;23.550;2023-06-04T06:28:26;8.40;;;4.18;;
21360;SDS011;10839;43.206;23.550;2023-06-04T06:30:56;8.00;;;4.07;;
21360;SDS011;10839;43.206;23.550;2023-06-04T06:33:22;22.85;;;12.13;;
21360;SDS011;10839;43.206;23.550;2023-06-04T06:35:50;18.13;;;9.23;;
21360;SDS011;10839;43.206;23.550;2023-06-04T06:38:19;20.30;;;12.40;;
21360;SDS011;10839;43.206;23.550;2023-06-04T06:40:45;23.17;;;15.27;;
21360;SDS011;10839;43.206;23.550;2023-06-04T06:43:13;12.95;;;9.45;;
21360;SDS011;10839;43.206;23.550;2023-06-04T06:45:41;13.30;;;7.07;;
21360;SDS011;10839;43.206;23.550;2023-06-04T06:48:06;14.38;;;6.03;;
21360;SDS011;10839;43.206;23.550;2023-06-04T06:50:32;10.25;;;5.60;;
21360;SDS011;10839;43.206;23.550;2023-06-04T06:53:02;8.18;;;5.47;;
21360;SDS011;10839;43.206;23.550;2023-06-04T06:55:29;17.10;;;5.38;;
21360;SDS011;10839;43.206;23.550;2023-06-04T06:57:55;35.33;;;19.85;;
21360;SDS011;10839;43.206;23.550;2023-06-04T07:00:21;19.60;;;11.68;;
21360;SDS011;10839;43.206;23.550;2023-06-04T07:02:49;22.30;;;12.70;;
21360;SDS011;10839;43.206;23.550;2023-06-04T07:05:15;14.50;;;7.75;;
21360;SDS011;10839;43.206;23.550;2023-06-04T07:07:42;10.10;;;5.38;;
21360;SDS011;10839;43.206;23.550;2023-06-04T07:10:08;7.22;;;4.38;;
21360;SDS011;10839;43.206;23.550;2023-06-04T07:12:34;8.48;;;4.18;;
21360;SDS011;10839;43.206;23.550;2023-06-04T07:15:00;12.80;;;4.40;;
21360;SDS011;10839;43.206;23.550;2023-06-04T07:17:28;8.05;;;4.22;;
21360;SDS011;10839;43.206;23.550;2023-06-04T07:19:54;10.88;;;3.80;;
21360;SDS011;10839;43.206;23.550;2023-06-04T07:22:23;6.75;;;4.15;;
21360;SDS011;10839;43.206;23.550;2023-06-04T07:24:49;6.80;;;4.03;;
21360;SDS011;10839;43.206;23.550;2023-06-04T07:27:18;4.50;;;3.70;;
21360;SDS011;10839;43.206;23.550;2023-06-04T07:29:47;5.80;;;3.78;;
21360;SDS011;10839;43.206;23.550;2023-06-04T07:32:13;10.82;;;3.95;;
21360;SDS011;10839;43.206;23.550;2023-06-04T07:34:41;5.40;;;3.53;;
21360;SDS011;10839;43.206;23.550;2023-06-04T07:37:07;6.82;;;4.10;;
21360;SDS011;10839;43.206;23.550;2023-06-04T07:39:35;9.10;;;3.88;;
21360;SDS011;10839;43.206;23.550;2023-06-04T07:42:02;8.98;;;3.85;;
21360;SDS011;10839;43.206;23.550;2023-06-04T07:44:29;8.90;;;4.00;;
21360;SDS011;10839;43.206;23.550;2023-06-04T07:46:57;9.02;;;3.83;;
21360;SDS011;10839;43.206;23.550;2023-06-04T07:49:23;8.43;;;3.72;;
21360;SDS011;10839;43.206;23.550;2023-06-04T07:51:49;10.43;;;3.83;;
21360;SDS011;10839;43.206;23.550;2023-06-04T07:54:15;34.80;;;19.75;;
21360;SDS011;10839;43.206;23.550;2023-06-04T07:56:42;21.80;;;14.50;;
21360;SDS011;10839;43.206;23.550;2023-06-04T07:59:08;18.67;;;8.48;;
21360;SDS011;10839;43.206;23.550;2023-06-04T08:01:34;16.05;;;9.52;;
21360;SDS011;10839;43.206;23.550;2023-06-04T08:04:01;14.02;;;4.60;;
21360;SDS011;10839;43.206;23.550;2023-06-04T08:06:27;12.38;;;4.32;;
21360;SDS011;10839;43.206;23.550;2023-06-04T08:08:53;13.27;;;4.82;;
21360;SDS011;10839;43.206;23.550;2023-06-04T08:11:19;10.38;;;5.15;;
21360;SDS011;10839;43.206;23.550;2023-06-04T08:13:44;11.07;;;5.53;;
21360;SDS011;10839;43.206;23.550;2023-06-04T08:16:15;8.98;;;4.90;;
21360;SDS011;10839;43.206;23.550;2023-06-04T08:18:41;12.55;;;4.80;;
21360;SDS011;10839;43.206;23.550;2023-06-04T08:21:10;11.80;;;4.82;;
21360;SDS011;10839;43.206;23.550;2023-06-04T08:23:38;9.00;;;4.95;;
21360;SDS011;10839;43.206;23.550;2023-06-04T08:26:06;9.27;;;4.72;;
21360;SDS011;10839;43.206;23.550;2023-06-04T08:28:32;12.88;;;5.28;;
21360;SDS011;10839;43.206;23.550;2023-06-04T08:30:58;9.88;;;4.95;;
21360;SDS011;10839;43.206;23.550;2023-06-04T08:33:24;8.98;;;4.63;;
21360;SDS011;10839;43.206;23.550;2023-06-04T08:35:49;7.40;;;4.28;;
21360;SDS011;10839;43.206;23.550;2023-06-04T08:38:15;11.40;;;4.78;;
21360;SDS011;10839;43.206;23.550;2023-06-04T08:40:41;12.65;;;4.85;;
21360;SDS011;10839;43.206;23.550;2023-06-04T08:43:09;17.10;;;10.23;;
21360;SDS011;10839;43.206;23.550;2023-06-04T08:45:38;18.25;;;7.88;;
21360;SDS011;10839;43.206;23.550;2023-06-04T08:48:08;65.68;;;39.15;;
21360;SDS011;10839;43.206;23.550;2023-06-04T08:50:39;25.67;;;15.93;;
21360;SDS011;10839;43.206;23.550;2023-06-04T08:53:08;20.42;;;13.25;;
21360;SDS011;10839;43.206;23.550;2023-06-04T08:55:36;14.10;;;6.18;;
21360;SDS011;10839;43.206;23.550;2023-06-04T08:58:03;13.27;;;6.28;;
21360;SDS011;10839;43.206;23.550;2023-06-04T09:00:33;12.07;;;6.35;;
21360;SDS011;10839;43.206;23.550;2023-06-04T09:02:59;9.55;;;5.07;;
21360;SDS011;10839;43.206;23.550;2023-06-04T09:05:28;9.45;;;5.93;;
21360;SDS011;10839;43.206;23.550;2023-06-04T09:07:55;8.48;;;5.18;;
21360;SDS011;10839;43.206;23.550;2023-06-04T09:10:26;10.93;;;5.85;;
21360;SDS011;10839;43.206;23.550;2023-06-04T09:12:54;13.13;;;5.53;;
21360;SDS011;10839;43.206;23.550;2023-06-04T09:15:26;11.40;;;5.97;;
21360;SDS011;10839;43.206;23.550;2023-06-04T09:17:52;9.40;;;5.50;;
21360;SDS011;10839;43.206;23.550;2023-06-04T09:20:21;12.20;;;6.07;;
21360;SDS011;10839;43.206;23.550;2023-06-04T09:22:48;13.35;;;6.00;;
21360;SDS011;10839;43.206;23.550;2023-06-04T09:25:22;16.85;;;6.00;;
21360;SDS011;10839;43.206;23.550;2023-06-04T09:27:50;11.23;;;5.47;;
21360;SDS011;10839;43.206;23.550;2023-06-04T09:30:17;9.20;;;4.28;;
21360;SDS011;10839;43.206;23.550;2023-06-04T09:32:44;11.90;;;4.68;;
21360;SDS011;10839;43.206;23.550;2023-06-04T09:35:13;8.32;;;5.10;;
21360;SDS011;10839;43.206;23.550;2023-06-04T09:37:42;9.05;;;5.10;;
21360;SDS011;10839;43.206;23.550;2023-06-04T09:40:17;13.77;;;8.13;;
21360;SDS011;10839;43.206;23.550;2023-06-04T09:42:43;60.92;;;39.08;;
21360;SDS011;10839;43.206;23.550;2023-06-04T09:45:11;26.83;;;16.77;;
21360;SDS011;10839;43.206;23.550;2023-06-04T09:47:41;15.43;;;7.35;;
21360;SDS011;10839;43.206;23.550;2023-06-04T09:50:08;11.98;;;5.78;;
21360;SDS011;10839;43.206;23.550;2023-06-04T09:52:37;13.15;;;7.45;;
21360;SDS011;10839;43.206;23.550;2023-06-04T09:55:26;13.57;;;8.02;;
21360;SDS011;10839;43.206;23.550;2023-06-04T09:57:52;15.90;;;8.43;;
21360;SDS011;10839;43.206;23.550;2023-06-04T10:00:19;26.02;;;16.40;;
21360;SDS011;10839;43.206;23.550;2023-06-04T10:02:48;14.43;;;6.22;;
21360;SDS011;10839;43.206;23.550;2023-06-04T10:05:15;10.73;;;5.97;;
21360;SDS011;10839;43.206;23.550;2023-06-04T10:07:45;14.68;;;6.32;;
21360;SDS011;10839;43.206;23.550;2023-06-04T10:10:21;9.27;;;5.68;;
21360;SDS011;10839;43.206;23.550;2023-06-04T10:13:00;12.60;;;7.32;;
21360;SDS011;10839;43.206;23.550;2023-06-04T10:15:35;19.20;;;7.35;;
21360;SDS011;10839;43.206;23.550;2023-06-04T10:18:02;15.25;;;6.70;;
21360;SDS011;10839;43.206;23.550;2023-06-04T10:20:29;13.27;;;7.18;;
21360;SDS011;10839;43.206;23.550;2023-06-04T10:22:58;11.50;;;6.45;;
21360;SDS011;10839;43.206;23.550;2023-06-04T10:25:26;10.00;;;6.63;;
21360;SDS011;10839;43.206;23.550;2023-06-04T10:27:52;11.82;;;5.97;;
21360;SDS011;10839;43.206;23.550;2023-06-04T10:30:20;14.88;;;7.60;;
21360;SDS011;10839;43.206;23.550;2023-06-04T10:32:46;16.38;;;7.50;;
21360;SDS011;10839;43.206;23.550;2023-06-04T10:35:15;13.95;;;6.70;;
21360;SDS011;10839;43.206;23.550;2023-06-04T10:37:41;13.65;;;5.30;;
21360;SDS011;10839;43.206;23.550;2023-06-04T10:40:07;9.80;;;5.35;;
21360;SDS011;10839;43.206;23.550;2023-06-04T10:42:41;11.15;;;6.30;;
21360;SDS011;10839;43.206;23.550;2023-06-04T10:45:10;12.93;;;6.35;;
21360;SDS011;10839;43.206;23.550;2023-06-04T10:47:37;12.98;;;6.18;;
21360;SDS011;10839;43.206;23.550;2023-06-04T10:50:09;14.57;;;6.28;;
21360;SDS011;10839;43.206;23.550;2023-06-04T10:52:37;8.15;;;5.30;;
21360;SDS011;10839;43.206;23.550;2023-06-04T10:55:08;10.52;;;5.82;;
21360;SDS011;10839;43.206;23.550;2023-06-04T10:57:34;11.60;;;6.18;;
21360;SDS011;10839;43.206;23.550;2023-06-04T11:00:01;11.80;;;6.07;;
21360;SDS011;10839;43.206;23.550;2023-06-04T11:02:31;12.80;;;5.68;;
21360;SDS011;10839;43.206;23.550;2023-06-04T11:05:07;11.70;;;5.75;;
21360;SDS011;10839;43.206;23.550;2023-06-04T11:07:42;9.82;;;5.43;;
21360;SDS011;10839;43.206;23.550;2023-06-04T11:10:09;15.25;;;6.88;;
21360;SDS011;10839;43.206;23.550;2023-06-04T11:12:46;14.02;;;7.90;;
21360;SDS011;10839;43.206;23.550;2023-06-04T11:15:16;10.95;;;6.63;;
21360;SDS011;10839;43.206;23.550;2023-06-04T11:17:54;13.10;;;6.28;;
21360;SDS011;10839;43.206;23.550;2023-06-04T11:20:24;10.68;;;6.15;;
21360;SDS011;10839;43.206;23.550;2023-06-04T11:22:54;9.35;;;5.95;;
21360;SDS011;10839;43.206;23.550;2023-06-04T11:25:25;13.80;;;5.90;;
21360;SDS011;10839;43.206;23.550;2023-06-04T11:27:55;12.85;;;6.40;;
21360;SDS011;10839;43.206;23.550;2023-06-04T11:30:22;10.02;;;6.07;;
21360;SDS011;10839;43.206;23.550;2023-06-04T11:32:49;15.13;;;6.32;;
21360;SDS011;10839;43.206;23.550;2023-06-04T11:35:16;9.05;;;5.32;;
21360;SDS011;10839;43.206;23.550;2023-06-04T11:37:42;16.75;;;6.15;;
21360;SDS011;10839;43.206;23.550;2023-06-04T11:40:19;9.75;;;5.82;;
21360;SDS011;10839;43.206;23.550;2023-06-04T11:42:48;14.23;;;6.43;;
21360;SDS011;10839;43.206;23.550;2023-06-04T11:45:16;16.48;;;6.10;;
21360;SDS011;10839;43.206;23.550;2023-06-04T11:47:49;9.40;;;5.32;;
21360;SDS011;10839;43.206;23.550;2023-06-04T11:50:18;10.32;;;5.47;;
21360;SDS011;10839;43.206;23.550;2023-06-04T11:52:44;13.90;;;6.32;;
21360;SDS011;10839;43.206;23.550;2023-06-04T11:55:12;10.75;;;5.85;;
21360;SDS011;10839;43.206;23.550;2023-06-04T11:57:47;12.60;;;6.32;;
21360;SDS011;10839;43.206;23.550;2023-06-04T12:00:16;12.07;;;5.25;;
21360;SDS011;10839;43.206;23.550;2023-06-04T12:02:51;7.60;;;5.55;;
21360;SDS011;10839;43.206;23.550;2023-06-04T12:05:18;13.85;;;5.68;;
21360;SDS011;10839;43.206;23.550;2023-06-04T12:07:50;13.43;;;7.10;;
21360;SDS011;10839;43.206;23.550;2023-06-04T12:10:17;22.98;;;12.70;;
21360;SDS011;10839;43.206;23.550;2023-06-04T12:12:53;39.40;;;24.73;;
21360;SDS011;10839;43.206;23.550;2023-06-04T12:15:22;26.30;;;13.95;;
21360;SDS011;10839;43.206;23.550;2023-06-04T12:17:50;15.10;;;7.75;;
21360;SDS011;10839;43.206;23.550;2023-06-04T12:20:17;33.97;;;17.95;;
21360;SDS011;10839;43.206;23.550;2023-06-04T12:22:47;29.17;;;13.85;;
21360;SDS011;10839;43.206;23.550;2023-06-04T12:25:23;35.47;;;21.65;;
21360;SDS011;10839;43.206;23.550;2023-06-04T12:27:51;38.88;;;23.90;;
21360;SDS011;10839;43.206;23.550;2023-06-04T12:30:19;32.05;;;17.35;;
21360;SDS011;10839;43.206;23.550;2023-06-04T12:32:47;26.75;;;11.95;;
21360;SDS011;10839;43.206;23.550;2023-06-04T12:35:13;16.38;;;9.00;;
21360;SDS011;10839;43.206;23.550;2023-06-04T12:37:41;14.77;;;8.15;;
21360;SDS011;10839;43.206;23.550;2023-06-04T12:40:07;15.93;;;8.98;;
21360;SDS011;10839;43.206;23.550;2023-06-04T12:42:34;14.70;;;7.05;;
21360;SDS011;10839;43.206;23.550;2023-06-04T12:45:01;11.90;;;6.57;;
21360;SDS011;10839;43.206;23.550;2023-06-04T12:47:27;19.02;;;7.32;;
21360;SDS011;10839;43.206;23.550;2023-06-04T12:49:55;9.82;;;6.70;;
21360;SDS011;10839;43.206;23.550;2023-06-04T12:52:21;15.15;;;9.18;;
21360;SDS011;10839;43.206;23.550;2023-06-04T12:54:47;20.42;;;8.05;;
21360;SDS011;10839;43.206;23.550;2023-06-04T12:57:13;19.50;;;9.40;;
21360;SDS011;10839;43.206;23.550;2023-06-04T12:59:41;16.58;;;8.05;;
21360;SDS011;10839;43.206;23.550;2023-06-04T13:02:07;14.65;;;7.75;;
21360;SDS011;10839;43.206;23.550;2023-06-04T13:04:32;13.13;;;7.60;;
21360;SDS011;10839;43.206;23.550;2023-06-04T13:06:58;18.02;;;7.65;;
21360;SDS011;10839;43.206;23.550;2023-06-04T13:09:25;11.73;;;7.15;;
21360;SDS011;10839;43.206;23.550;2023-06-04T13:11:57;13.57;;;7.00;;
21360;SDS011;10839;43.206;23.550;2023-06-04T13:14:23;11.18;;;6.55;;
21360;SDS011;10839;43.206;23.550;2023-06-04T13:16:50;11.23;;;6.10;;
21360;SDS011;10839;43.206;23.550;2023-06-04T13:19:18;14.93;;;6.78;;
21360;SDS011;10839;43.206;23.550;2023-06-04T13:21:47;18.85;;;6.82;;
21360;SDS011;10839;43.206;23.550;2023-06-04T13:24:13;12.63;;;5.63;;
21360;SDS011;10839;43.206;23.550;2023-06-04T13:26:41;9.32;;;5.57;;
21360;SDS011;10839;43.206;23.550;2023-06-04T13:29:07;10.43;;;5.90;;
21360;SDS011;10839;43.206;23.550;2023-06-04T13:31:33;13.77;;;6.13;;
21360;SDS011;10839;43.206;23.550;2023-06-04T13:33:59;12.85;;;6.13;;
21360;SDS011;10839;43.206;23.550;2023-06-04T13:36:25;12.23;;;6.18;;
21360;SDS011;10839;43.206;23.550;2023-06-04T13:38:50;15.52;;;6.88;;
21360;SDS011;10839;43.206;23.550;2023-06-04T13:41:19;20.50;;;10.13;;
21360;SDS011;10839;43.206;23.550;2023-06-04T13:43:47;51.72;;;29.10;;
21360;SDS011;10839;43.206;23.550;2023-06-04T13:46:13;29.05;;;17.00;;
21360;SDS011;10839;43.206;23.550;2023-06-04T13:48:39;33.55;;;18.23;;
21360;SDS011;10839;43.206;23.550;2023-06-04T13:51:07;17.92;;;10.32;;
21360;SDS011;10839;43.206;23.550;2023-06-04T13:53:32;15.40;;;8.57;;
21360;SDS011;10839;43.206;23.550;2023-06-04T13:56:01;13.20;;;7.53;;
21360;SDS011;10839;43.206;23.550;2023-06-04T13:58:26;34.15;;;16.67;;
21360;SDS011;10839;43.206;23.550;2023-06-04T14:00:53;24.27;;;14.95;;
21360;SDS011;10839;43.206;23.550;2023-06-04T14:03:19;32.03;;;19.63;;
21360;SDS011;10839;43.206;23.550;2023-06-04T14:05:45;27.10;;;14.57;;
21360;SDS011;10839;43.206;23.550;2023-06-04T14:08:10;57.55;;;32.40;;
21360;SDS011;10839;43.206;23.550;2023-06-04T14:10:37;44.97;;;25.27;;
21360;SDS011;10839;43.206;23.550;2023-06-04T14:13:06;67.82;;;40.50;;
21360;SDS011;10839;43.206;23.550;2023-06-04T14:15:33;19.63;;;12.35;;
21360;SDS011;10839;43.206;23.550;2023-06-04T14:17:59;20.58;;;10.82;;
21360;SDS011;10839;43.206;23.550;2023-06-04T14:20:26;20.35;;;12.05;;
21360;SDS011;10839;43.206;23.550;2023-06-04T14:22:52;13.70;;;8.63;;
21360;SDS011;10839;43.206;23.550;2023-06-04T14:25:18;12.50;;;7.72;;
21360;SDS011;10839;43.206;23.550;2023-06-04T14:27:44;12.07;;;6.78;;
21360;SDS011;10839;43.206;23.550;2023-06-04T14:30:09;13.57;;;7.22;;
21360;SDS011;10839;43.206;23.550;2023-06-04T14:32:36;12.45;;;6.38;;
21360;SDS011;10839;43.206;23.550;2023-06-04T14:35:02;14.85;;;8.20;;